createdAt,value
2022-11-16T00:02:13.585Z,99608.40
2022-11-16T00:04:42.331Z,99608.20
2022-11-16T00:07:11.049Z,99599.20
2022-11-16T00:09:39.453Z,99605.40
2022-11-16T00:12:10.823Z,99601.00
2022-11-16T00:14:39.149Z,99602.00
2022-11-16T00:17:07.389Z,99606.20
2022-11-16T00:19:35.760Z,99605.40
2022-11-16T00:22:04.062Z,99600.80
2022-11-16T00:24:32.305Z,99599.60
2022-11-16T00:27:00.610Z,99596.40
2022-11-16T00:29:28.947Z,99592.80
2022-11-16T00:31:57.206Z,99591.40
2022-11-16T00:34:26.175Z,99587.00
2022-11-16T00:36:54.485Z,99583.60
2022-11-16T00:39:22.774Z,99577.00
2022-11-16T00:41:51.168Z,99576.00
2022-11-16T00:44:19.536Z,99575.80
2022-11-16T00:46:47.953Z,99572.40
2022-11-16T00:49:16.385Z,99568.80
2022-11-16T00:51:44.664Z,99561.80
2022-11-16T00:54:13.051Z,99556.00
2022-11-16T00:56:41.508Z,99553.20
2022-11-16T00:59:09.786Z,99551.60
2022-11-16T01:01:38.329Z,99544.60
2022-11-16T01:04:07.922Z,99541.20
2022-11-16T01:06:37.624Z,99538.00
2022-11-16T01:09:05.954Z,99530.60
2022-11-16T01:11:52.841Z,99527.80
2022-11-16T01:14:21.057Z,99521.20
2022-11-16T01:16:50.705Z,99518.00
2022-11-16T01:19:19.113Z,99509.80
2022-11-16T01:21:47.439Z,99513.40
2022-11-16T01:24:15.794Z,99506.80
2022-11-16T01:26:44.220Z,99503.20
2022-11-16T01:29:13.113Z,99503.40
2022-11-16T01:31:45.411Z,99500.80
2022-11-16T01:34:13.748Z,99496.20
2022-11-16T01:36:41.965Z,99498.80
2022-11-16T01:39:13.069Z,99493.20
2022-11-16T01:41:49.376Z,99486.60
2022-11-16T01:44:34.051Z,99481.20
2022-11-16T01:47:11.809Z,99486.00
2022-11-16T01:49:46.176Z,99484.40
2022-11-16T01:52:24.410Z,99479.20
2022-11-16T01:54:54.496Z,99484.80
2022-11-16T01:57:33.069Z,99478.60
2022-11-16T02:00:12.145Z,99477.40
2022-11-16T02:02:46.040Z,99473.20
2022-11-16T02:05:50.588Z,99474.60
2022-11-16T02:09:16.206Z,99472.40
2022-11-16T02:12:19.255Z,99469.40
2022-11-16T02:15:04.591Z,99468.60
2022-11-16T02:17:58.695Z,99465.00
2022-11-16T02:20:40.700Z,99468.00
2022-11-16T02:23:43.757Z,99462.60
2022-11-16T02:26:31.124Z,99457.80
2022-11-16T02:29:18.216Z,99455.40
2022-11-16T02:32:09.167Z,99449.00
2022-11-16T02:34:50.510Z,99444.60
2022-11-16T02:37:22.750Z,99443.40
2022-11-16T02:39:56.876Z,99438.20
2022-11-16T02:42:35.353Z,99433.40
2022-11-16T02:45:08.590Z,99431.00
2022-11-16T02:47:39.774Z,99429.20
2022-11-16T02:50:18.193Z,99430.00
2022-11-16T02:52:46.609Z,99430.80
2022-11-16T02:55:15.165Z,99426.80
2022-11-16T02:57:59.010Z,99424.80
2022-11-16T03:00:51.888Z,99419.80
2022-11-16T03:03:48.062Z,99411.60
2022-11-16T03:06:24.862Z,99407.20
2022-11-16T03:09:18.715Z,99407.40
2022-11-16T03:12:00.845Z,99406.40
2022-11-16T03:14:59.197Z,99399.00
2022-11-16T03:17:34.349Z,99398.00
2022-11-16T03:20:11.784Z,99400.00
2022-11-16T03:22:42.032Z,99402.00
2022-11-16T03:25:12.935Z,99398.80
2022-11-16T03:28:07.484Z,99399.00
2022-11-16T03:30:42.619Z,99395.40
2022-11-16T03:33:19.061Z,99392.80
2022-11-16T03:35:56.623Z,99387.60
2022-11-16T03:38:27.714Z,99393.00
2022-11-16T03:41:06.500Z,99389.20
2022-11-16T03:43:36.506Z,99390.20
2022-11-16T03:46:06.030Z,99376.60
2022-11-16T03:48:36.670Z,99371.40
2022-11-16T03:51:10.690Z,99360.20
2022-11-16T03:53:39.525Z,99360.40
2022-11-16T03:56:08.109Z,99358.00
2022-11-16T03:58:36.533Z,99360.00
2022-11-16T04:01:05.193Z,99355.80
2022-11-16T04:03:33.758Z,99351.00
2022-11-16T04:06:20.712Z,99351.60
2022-11-16T04:09:28.313Z,99348.60
2022-11-16T04:12:15.450Z,99345.60
2022-11-16T04:15:03.538Z,99344.20
2022-11-16T04:17:51.426Z,99338.80
2022-11-16T04:20:38.518Z,99335.00
2022-11-16T04:23:32.607Z,99336.20
2022-11-16T04:26:01.049Z,99335.00
2022-11-16T04:28:35.135Z,99337.20
2022-11-16T04:31:41.163Z,99332.40
2022-11-16T04:34:30.330Z,99331.20
2022-11-16T04:37:17.822Z,99322.00
2022-11-16T04:39:46.625Z,99320.80
2022-11-16T04:42:22.512Z,99319.40
2022-11-16T04:45:11.282Z,99317.60
2022-11-16T04:47:45.822Z,99315.00
2022-11-16T04:50:14.623Z,99309.20
2022-11-16T04:52:43.275Z,99308.40
2022-11-16T04:55:13.780Z,99302.20
2022-11-16T04:57:42.019Z,99308.20
2022-11-16T05:00:11.118Z,99304.00
2022-11-16T05:02:40.150Z,99307.80
2022-11-16T05:05:09.274Z,99310.20
2022-11-16T05:07:38.757Z,99306.20
2022-11-16T05:10:13.336Z,99301.60
2022-11-16T05:12:41.987Z,99297.60
2022-11-16T05:15:11.305Z,99295.60
2022-11-16T05:17:40.445Z,99292.60
2022-11-16T05:20:31.470Z,99289.80
2022-11-16T05:23:03.822Z,99293.40
2022-11-16T05:25:36.959Z,99302.80
2022-11-16T05:28:07.670Z,99297.60
2022-11-16T05:30:39.248Z,99304.80
2022-11-16T05:33:07.533Z,99297.60
2022-11-16T05:35:39.024Z,99300.60
2022-11-16T05:38:08.278Z,99294.00
2022-11-16T05:40:40.583Z,99300.00
2022-11-16T05:43:08.950Z,99296.20
2022-11-16T05:45:40.980Z,99295.00
2022-11-16T05:48:09.689Z,99295.00
2022-11-16T05:50:42.495Z,99292.40
2022-11-16T05:53:16.911Z,99292.40
2022-11-16T05:55:45.305Z,99292.80
2022-11-16T05:58:13.771Z,99297.80
2022-11-16T06:00:42.131Z,99296.40
2022-11-16T06:03:10.821Z,99291.00
2022-11-16T06:05:40.632Z,99284.60
2022-11-16T06:08:10.575Z,99280.20
2022-11-16T06:10:38.879Z,99279.80
2022-11-16T06:13:07.388Z,99281.20
2022-11-16T06:15:39.709Z,99279.20
2022-11-16T06:18:08.773Z,99279.00
2022-11-16T06:20:39.432Z,99278.60
2022-11-16T06:23:08.325Z,99281.40
2022-11-16T06:25:39.027Z,99284.20
2022-11-16T06:28:08.296Z,99279.60
2022-11-16T06:30:39.568Z,99281.60
2022-11-16T06:33:09.108Z,99283.00
2022-11-16T06:35:38.560Z,99279.20
2022-11-16T06:38:07.007Z,99278.60
2022-11-16T06:40:35.508Z,99274.20
2022-11-16T06:43:04.457Z,99274.00
2022-11-16T06:45:32.996Z,99273.60
2022-11-16T06:48:01.856Z,99269.20
2022-11-16T06:50:30.279Z,99262.20
2022-11-16T06:53:01.113Z,99256.00
2022-11-16T06:55:30.182Z,99263.20
2022-11-16T06:57:58.494Z,99257.00
2022-11-16T07:00:28.227Z,99257.20
2022-11-16T07:02:57.226Z,99259.20
2022-11-16T07:05:25.524Z,99253.20
2022-11-16T07:07:56.316Z,99251.60
2022-11-16T07:10:26.282Z,99249.80
2022-11-16T07:12:55.211Z,99249.40
2022-11-16T07:15:24.631Z,99247.00
2022-11-16T07:17:53.039Z,99239.80
2022-11-16T07:20:21.439Z,99242.00
2022-11-16T07:22:49.846Z,99240.00
2022-11-16T07:25:18.654Z,99237.00
2022-11-16T07:27:47.961Z,99245.20
2022-11-16T07:30:16.892Z,99242.20
2022-11-16T07:33:04.510Z,99230.60
2022-11-16T07:35:51.708Z,99231.80
2022-11-16T07:38:20.315Z,99226.80
2022-11-16T07:40:48.925Z,99223.20
2022-11-16T07:43:19.467Z,99218.40
2022-11-16T07:46:45.149Z,99215.80
2022-11-16T07:49:17.996Z,99218.80
2022-11-16T07:52:10.589Z,99214.40
2022-11-16T07:55:05.928Z,99213.80
2022-11-16T07:57:35.058Z,99210.80
2022-11-16T08:00:07.248Z,99206.40
2022-11-16T08:02:41.795Z,99209.80
2022-11-16T08:05:11.831Z,99211.40
2022-11-16T08:07:40.741Z,99212.40
2022-11-16T08:10:09.646Z,99208.40
2022-11-16T08:12:37.949Z,99210.80
2022-11-16T08:15:07.681Z,99205.80
2022-11-16T08:17:36.024Z,99199.80
2022-11-16T08:20:05.590Z,99196.60
2022-11-16T08:22:33.999Z,99196.00
2022-11-16T08:25:03.682Z,99200.20
2022-11-16T08:27:33.372Z,99203.60
2022-11-16T08:30:04.929Z,99196.20
2022-11-16T08:32:33.370Z,99195.00
2022-11-16T08:35:02.264Z,99190.60
2022-11-16T08:37:32.157Z,99194.60
2022-11-16T08:40:00.509Z,99193.60
2022-11-16T08:42:29.718Z,99189.80
2022-11-16T08:44:58.054Z,99188.20
2022-11-16T08:47:26.495Z,99185.80
2022-11-16T08:49:57.494Z,99186.60
2022-11-16T08:52:27.024Z,99183.40
2022-11-16T08:54:55.528Z,99179.20
2022-11-16T08:57:23.918Z,99173.00
2022-11-16T08:59:55.901Z,99168.80
2022-11-16T09:02:25.933Z,99170.00
2022-11-16T09:04:54.635Z,99163.20
2022-11-16T09:07:23.142Z,99159.00
2022-11-16T09:09:51.444Z,99150.20
2022-11-16T09:12:20.255Z,99155.60
2022-11-16T09:14:48.557Z,99153.40
2022-11-16T09:17:21.854Z,99151.40
2022-11-16T09:19:51.399Z,99145.60
2022-11-16T09:22:19.707Z,99148.80
2022-11-16T09:24:48.132Z,99143.40
2022-11-16T09:27:17.141Z,99141.80
2022-11-16T09:29:45.399Z,99141.60
2022-11-16T09:32:13.742Z,99138.40
2022-11-16T09:34:42.060Z,99129.80
2022-11-16T09:37:10.270Z,99123.80
2022-11-16T09:39:38.564Z,99114.60
2022-11-16T09:42:31.431Z,99109.60
2022-11-16T09:45:08.723Z,99108.40
2022-11-16T09:47:54.530Z,99104.60
2022-11-16T09:50:34.470Z,99097.00
2022-11-16T09:53:34.440Z,99093.00
2022-11-16T09:56:07.524Z,99095.00
2022-11-16T09:59:06.686Z,99089.00
2022-11-16T10:02:15.316Z,99081.20
2022-11-16T10:04:56.694Z,99079.20
2022-11-16T10:07:46.949Z,99070.20
2022-11-16T10:10:52.782Z,99065.00
2022-11-16T10:13:48.051Z,99064.20
2022-11-16T10:16:45.370Z,99064.20
2022-11-16T10:19:27.395Z,99056.40
2022-11-16T10:22:28.395Z,99052.80
2022-11-16T10:24:58.053Z,99041.40
2022-11-16T10:27:51.236Z,99033.40
2022-11-16T10:30:21.497Z,99032.60
2022-11-16T10:33:10.918Z,99032.40
2022-11-16T10:35:45.695Z,99030.20
2022-11-16T10:38:17.377Z,99023.40
2022-11-16T10:40:51.865Z,99017.20
2022-11-16T10:43:30.518Z,99015.00
2022-11-16T10:46:23.522Z,99003.00
2022-11-16T10:48:54.695Z,98998.80
2022-11-16T10:51:23.030Z,99004.00
2022-11-16T10:53:53.374Z,98999.20
2022-11-16T10:56:39.885Z,98994.80
2022-11-16T10:59:42.106Z,98987.60
2022-11-16T11:02:33.842Z,98985.80
2022-11-16T11:05:23.054Z,98980.00
2022-11-16T11:08:04.432Z,98971.80
2022-11-16T11:10:39.142Z,98969.00
2022-11-16T11:13:08.058Z,98963.20
2022-11-16T11:15:40.401Z,98962.80
2022-11-16T11:18:19.649Z,98959.20
2022-11-16T11:21:13.041Z,98963.40
2022-11-16T11:23:47.807Z,98963.80
2022-11-16T11:26:25.121Z,98957.80
2022-11-16T11:28:53.984Z,98960.00
2022-11-16T11:31:34.571Z,98956.20
2022-11-16T11:34:15.461Z,98962.40
2022-11-16T11:36:52.624Z,98961.20
2022-11-16T11:39:21.519Z,98955.20
2022-11-16T11:42:03.903Z,98949.60
2022-11-16T11:44:50.107Z,98946.00
2022-11-16T11:50:28.645Z,98940.60
2022-11-16T11:53:07.206Z,98935.60
2022-11-16T11:55:35.522Z,98931.80
2022-11-16T11:58:06.320Z,98931.00
2022-11-16T12:01:20.732Z,98928.40
2022-11-16T12:04:29.835Z,98921.00
2022-11-16T12:07:22.773Z,98924.20
2022-11-16T12:10:13.090Z,98923.20
2022-11-16T12:12:55.297Z,98920.60
2022-11-16T12:15:23.609Z,98910.80
2022-11-16T12:18:07.371Z,98912.60
2022-11-16T12:21:00.177Z,98910.80
2022-11-16T12:24:22.794Z,98907.00
2022-11-16T12:27:14.639Z,98897.80
2022-11-16T12:29:53.756Z,98895.60
2022-11-16T12:32:48.138Z,98893.20
2022-11-16T12:35:37.756Z,98889.20
2022-11-16T12:38:37.284Z,98893.20
2022-11-16T12:41:27.278Z,98883.80
2022-11-16T12:44:30.910Z,98885.00
2022-11-16T12:47:11.298Z,98884.20
2022-11-16T12:49:52.588Z,98881.40
2022-11-16T12:52:39.410Z,98883.20
2022-11-16T12:55:34.858Z,98882.60
2022-11-16T12:58:14.705Z,98883.00
2022-11-16T13:01:02.870Z,98880.20
2022-11-16T13:04:01.625Z,98887.20
2022-11-16T13:06:39.388Z,98885.00
2022-11-16T13:09:10.887Z,98883.00
2022-11-16T13:11:57.592Z,98883.40
2022-11-16T13:14:33.903Z,98885.40
2022-11-16T13:17:04.448Z,98880.20
2022-11-16T13:19:37.965Z,98873.20
2022-11-16T13:22:22.601Z,98874.40
2022-11-16T13:25:19.434Z,98871.60
2022-11-16T13:27:54.219Z,98877.20
2022-11-16T13:30:29.111Z,98875.00
2022-11-16T13:33:30.193Z,98873.80
2022-11-16T13:35:58.579Z,98871.20
2022-11-16T13:38:59.658Z,98866.60
2022-11-16T13:41:41.479Z,98873.80
2022-11-16T13:44:20.738Z,98874.20
2022-11-16T13:47:04.656Z,98867.00
2022-11-16T13:49:49.408Z,98868.20
2022-11-16T13:52:23.796Z,98864.60
2022-11-16T13:54:55.693Z,98860.60
2022-11-16T13:57:34.071Z,98859.80
2022-11-16T14:00:02.338Z,98867.00
2022-11-16T14:02:38.060Z,98864.40
2022-11-16T14:05:12.544Z,98856.00
2022-11-16T14:07:48.157Z,98859.20
2022-11-16T14:10:35.159Z,98857.80
2022-11-16T14:13:44.012Z,98866.00
2022-11-16T14:16:15.253Z,98872.60
2022-11-16T14:18:58.759Z,98878.60
2022-11-16T14:21:50.736Z,98881.40
2022-11-16T14:24:29.279Z,98886.00
2022-11-16T14:27:03.769Z,98880.80
2022-11-16T14:29:56.530Z,98877.80
2022-11-16T14:32:39.754Z,98882.40
2022-11-16T14:35:26.624Z,98885.80
2022-11-16T14:38:07.788Z,98887.60
2022-11-16T14:40:46.620Z,98888.60
2022-11-16T14:43:28.872Z,98893.40
2022-11-16T14:46:01.623Z,98896.80
2022-11-16T14:48:31.066Z,98888.80
2022-11-16T14:51:16.991Z,98890.00
2022-11-16T14:53:50.748Z,98889.40
2022-11-16T14:56:19.917Z,98892.00
2022-11-16T14:58:53.211Z,98890.20
2022-11-16T15:01:25.866Z,98882.00
2022-11-16T15:04:02.605Z,98879.60
2022-11-16T15:06:39.317Z,98877.60
2022-11-16T15:09:13.781Z,98873.40
2022-11-16T15:12:01.885Z,98875.40
2022-11-16T15:14:33.404Z,98878.60
2022-11-16T15:17:01.822Z,98876.40
2022-11-16T15:19:30.991Z,98885.40
2022-11-16T15:22:01.749Z,98886.40
2022-11-16T15:24:32.867Z,98894.60
2022-11-16T15:27:11.058Z,98891.60
2022-11-16T15:29:39.737Z,98891.00
2022-11-16T15:32:15.746Z,98892.40
2022-11-16T15:34:49.454Z,98890.80
2022-11-16T15:37:30.366Z,98890.80
2022-11-16T15:40:00.283Z,98887.80
2022-11-16T15:42:28.899Z,98883.80
2022-11-16T15:45:01.195Z,98892.40
2022-11-16T15:47:30.355Z,98895.00
2022-11-16T15:49:58.725Z,98895.00
2022-11-16T15:52:50.342Z,98891.40
2022-11-16T15:55:29.028Z,98883.60
2022-11-16T15:58:26.732Z,98882.20
2022-11-16T16:00:56.392Z,98877.60
2022-11-16T16:03:31.775Z,98878.20
2022-11-16T16:06:01.696Z,98874.60
2022-11-16T16:08:34.564Z,98880.40
2022-11-16T16:11:06.206Z,98879.00
2022-11-16T16:13:57.376Z,98877.20
2022-11-16T16:16:32.693Z,98873.00
2022-11-16T16:19:09.546Z,98876.20
2022-11-16T16:21:45.185Z,98874.80
2022-11-16T16:24:39.612Z,98871.40
2022-11-16T16:27:19.852Z,98874.40
2022-11-16T16:29:50.654Z,98873.20
2022-11-16T16:32:28.334Z,98878.20
2022-11-16T16:34:59.078Z,98878.00
2022-11-16T16:37:29.559Z,98876.00
2022-11-16T16:39:58.939Z,98873.20
2022-11-16T16:42:27.803Z,98876.20
2022-11-16T16:44:59.917Z,98869.20
2022-11-16T16:47:28.730Z,98877.60
2022-11-16T16:49:57.184Z,98872.00
2022-11-16T16:52:25.737Z,98875.80
2022-11-16T16:54:54.235Z,98879.20
2022-11-16T16:57:22.633Z,98875.80
2022-11-16T16:59:51.150Z,98879.20
2022-11-16T17:02:19.866Z,98888.60
2022-11-16T17:04:48.691Z,98887.40
2022-11-16T17:07:17.434Z,98892.60
2022-11-16T17:09:46.002Z,98891.80
2022-11-16T17:12:14.454Z,98890.40
2022-11-16T17:14:43.018Z,98887.00
2022-11-16T17:17:11.403Z,98888.40
2022-11-16T17:19:39.812Z,98889.40
2022-11-16T17:22:08.141Z,98884.40
2022-11-16T17:24:36.553Z,98883.60
2022-11-16T17:27:05.342Z,98883.00
2022-11-16T17:29:33.814Z,98875.20
2022-11-16T17:32:02.573Z,98872.80
2022-11-16T17:34:32.195Z,98869.80
2022-11-16T17:37:00.781Z,98864.40
2022-11-16T17:39:29.129Z,98867.00
2022-11-16T17:41:57.503Z,98866.20
2022-11-16T17:44:26.822Z,98868.00
2022-11-16T17:46:55.261Z,98872.00
2022-11-16T17:49:23.731Z,98869.60
2022-11-16T17:51:52.214Z,98865.40
2022-11-16T17:54:20.642Z,98863.00
2022-11-16T17:56:49.051Z,98858.60
2022-11-16T17:59:17.342Z,98856.40
2022-11-16T18:01:45.863Z,98859.40
2022-11-16T18:04:14.260Z,98855.20
2022-11-16T18:06:42.533Z,98854.00
2022-11-16T18:09:11.522Z,98850.00
2022-11-16T18:11:39.967Z,98850.80
2022-11-16T18:14:09.357Z,98854.40
2022-11-16T18:16:37.896Z,98844.00
2022-11-16T18:19:06.938Z,98838.80
2022-11-16T18:21:40.649Z,98843.80
2022-11-16T18:24:09.565Z,98840.20
2022-11-16T18:26:39.299Z,98843.20
2022-11-16T18:29:12.336Z,98844.80
2022-11-16T18:31:40.629Z,98842.40
2022-11-16T18:34:08.932Z,98842.40
2022-11-16T18:36:37.269Z,98842.60
2022-11-16T18:39:05.544Z,98840.60
2022-11-16T18:41:34.028Z,98837.80
2022-11-16T18:44:03.060Z,98845.60
2022-11-16T18:46:32.859Z,98850.40
2022-11-16T18:49:01.265Z,98850.60
2022-11-16T18:51:30.723Z,98854.00
2022-11-16T18:53:58.924Z,98856.20
2022-11-16T18:56:27.475Z,98849.60
2022-11-16T18:58:55.911Z,98853.20
2022-11-16T19:01:26.367Z,98855.40
2022-11-16T19:03:56.204Z,98853.20
2022-11-16T19:06:24.471Z,98858.60
2022-11-16T19:08:59.682Z,98857.00
2022-11-16T19:11:28.616Z,98856.20
2022-11-16T19:14:00.994Z,98857.00
2022-11-16T19:16:29.840Z,98856.80
2022-11-16T19:18:58.235Z,98860.20
2022-11-16T19:21:26.525Z,98861.00
2022-11-16T19:23:56.311Z,98854.60
2022-11-16T19:26:27.443Z,98860.60
2022-11-16T19:28:56.219Z,98858.40
2022-11-16T19:31:30.043Z,98854.60
2022-11-16T19:34:02.341Z,98857.80
2022-11-16T19:36:32.384Z,98853.60
2022-11-16T19:39:00.736Z,98847.60
2022-11-16T19:41:29.699Z,98843.60
2022-11-16T19:44:00.340Z,98837.80
2022-11-16T19:46:31.535Z,98837.80
2022-11-16T19:49:00.589Z,98832.40
2022-11-16T19:51:31.465Z,98830.80
2022-11-16T19:54:01.985Z,98830.60
2022-11-16T19:56:30.661Z,98834.80
2022-11-16T19:58:59.029Z,98833.40
2022-11-16T20:01:29.500Z,98840.20
2022-11-16T20:04:03.738Z,98831.00
2022-11-16T20:06:34.944Z,98831.20
2022-11-16T20:09:09.098Z,98832.60
2022-11-16T20:11:39.913Z,98832.60
2022-11-16T20:14:10.466Z,98835.40
2022-11-16T20:16:41.399Z,98831.20
2022-11-16T20:19:10.761Z,98828.20
2022-11-16T20:21:41.515Z,98825.60
2022-11-16T20:24:12.709Z,98822.20
2022-11-16T20:26:48.942Z,98818.60
2022-11-16T20:29:18.913Z,98820.00
2022-11-16T20:31:47.392Z,98827.00
2022-11-16T20:34:17.687Z,98841.20
2022-11-16T20:36:47.533Z,98838.80
2022-11-16T20:39:17.892Z,98843.20
2022-11-16T20:41:47.872Z,98843.60
2022-11-16T20:44:23.634Z,98838.40
2022-11-16T20:46:54.633Z,98832.40
2022-11-16T20:49:22.946Z,98826.80
2022-11-16T20:51:51.492Z,98828.80
2022-11-16T20:54:19.811Z,98832.40
2022-11-16T20:56:51.076Z,98826.60
2022-11-16T20:59:19.378Z,98824.20
2022-11-16T21:01:49.095Z,98827.40
2022-11-16T21:04:17.594Z,98825.00
2022-11-16T21:06:45.997Z,98822.60
2022-11-16T21:09:22.866Z,98819.00
2022-11-16T21:12:10.079Z,98820.20
2022-11-16T21:14:38.352Z,98831.60
2022-11-16T21:17:06.632Z,98835.00
2022-11-16T21:19:34.908Z,98833.40
2022-11-16T21:22:03.104Z,98829.60
2022-11-16T21:24:32.463Z,98826.20
2022-11-16T21:27:00.822Z,98829.60
2022-11-16T21:29:29.158Z,98821.00
2022-11-16T21:31:57.544Z,98824.80
2022-11-16T21:34:28.098Z,98827.60
2022-11-16T21:36:56.505Z,98823.20
2022-11-16T21:39:25.427Z,98822.00
2022-11-16T21:41:53.772Z,98825.60
2022-11-16T21:44:22.052Z,98815.80
2022-11-16T21:46:50.343Z,98818.80
2022-11-16T21:49:18.673Z,98812.40
2022-11-16T21:51:47.025Z,98811.40
2022-11-16T21:54:15.271Z,98815.60
2022-11-16T21:56:43.641Z,98818.60
2022-11-16T21:59:11.923Z,98809.20
2022-11-16T22:01:59.184Z,98807.60
2022-11-16T22:04:47.705Z,98805.80
2022-11-16T22:07:35.915Z,98803.00
2022-11-16T22:10:09.960Z,98801.60
2022-11-16T22:12:38.837Z,98789.00
2022-11-16T22:15:07.756Z,98786.20
2022-11-16T22:17:36.052Z,98780.20
2022-11-16T22:20:04.760Z,98786.40
2022-11-16T22:22:32.982Z,98787.80
2022-11-16T22:25:01.659Z,98777.60
2022-11-16T22:27:30.030Z,98778.40
2022-11-16T22:29:58.224Z,98774.80
2022-11-16T22:32:26.577Z,98776.60
2022-11-16T22:34:54.793Z,98775.00
2022-11-16T22:37:22.997Z,98783.60
2022-11-16T22:39:51.199Z,98786.80
2022-11-16T22:42:19.607Z,98785.40
2022-11-16T22:44:47.835Z,98783.60
2022-11-16T22:47:16.081Z,98786.00
2022-11-16T22:49:44.341Z,98781.20
2022-11-16T22:52:12.856Z,98782.80
2022-11-16T22:54:41.081Z,98781.40
2022-11-16T22:57:09.414Z,98778.80
2022-11-16T22:59:37.803Z,98774.60
2022-11-16T23:02:06.108Z,98772.20
2022-11-16T23:04:34.449Z,98774.40
2022-11-16T23:07:02.667Z,98772.00
2022-11-16T23:09:32.369Z,98765.40
2022-11-16T23:12:19.203Z,98765.00
2022-11-16T23:15:06.037Z,98755.80
2022-11-16T23:17:34.507Z,98751.40
2022-11-16T23:20:21.757Z,98751.40
2022-11-16T23:23:08.888Z,98749.60
2022-11-16T23:25:56.178Z,98740.20
2022-11-16T23:28:24.513Z,98743.40
2022-11-16T23:30:52.785Z,98736.20
2022-11-16T23:33:40.983Z,98740.60
2022-11-16T23:36:09.800Z,98740.60
2022-11-16T23:38:38.704Z,98738.60
2022-11-16T23:41:26.235Z,98734.40
2022-11-16T23:44:00.498Z,98732.60
2022-11-16T23:46:31.122Z,98723.40
2022-11-16T23:49:01.021Z,98724.00
2022-11-16T23:51:29.345Z,98715.40
2022-11-16T23:53:57.644Z,98710.20
2022-11-16T23:56:27.655Z,98704.60
2022-11-16T23:58:57.672Z,98701.60
